createdAt,value
2022-08-16T00:00:38.604Z,100582.50
2022-08-16T00:03:07.536Z,100580.44
2022-08-16T00:05:47.928Z,100583.63
2022-08-16T00:08:35.963Z,100578.31
2022-08-16T00:11:05.654Z,100578.47
2022-08-16T00:13:41.797Z,100577.44
2022-08-16T00:17:05.855Z,100581.78
2022-08-16T00:18:58.997Z,100586.06
2022-08-16T00:21:29.195Z,100572.38
2022-08-16T00:23:57.253Z,100582.16
2022-08-16T00:26:35.193Z,100580.41
2022-08-16T00:29:16.042Z,100584.72
2022-08-16T00:31:58.664Z,100583.00
2022-08-16T00:34:43.686Z,100603.56
2022-08-16T00:37:18.712Z,100610.97
2022-08-16T00:39:58.662Z,100604.78
2022-08-16T00:42:31.666Z,100606.34
2022-08-16T00:45:26.649Z,100609.09
2022-08-16T00:47:55.683Z,100629.03
2022-08-16T00:50:35.969Z,100623.97
2022-08-16T00:53:05.725Z,100614.38
2022-08-16T00:55:38.016Z,100612.06
2022-08-16T00:58:13.064Z,100623.41
2022-08-16T01:00:53.903Z,100636.22
2022-08-16T01:03:31.677Z,100643.84
2022-08-16T01:06:40.809Z,100648.09
2022-08-16T01:08:55.178Z,100654.09
2022-08-16T01:11:29.467Z,100656.09
2022-08-16T01:14:01.690Z,100654.13
2022-08-16T01:16:32.285Z,100649.88
2022-08-16T01:19:06.658Z,100649.06
2022-08-16T01:21:45.124Z,100662.84
2022-08-16T01:24:52.760Z,100652.56
2022-08-16T01:27:15.907Z,100632.72
2022-08-16T01:29:59.813Z,100643.56
2022-08-16T01:32:33.443Z,100648.31
2022-08-16T01:35:04.072Z,100647.97
2022-08-16T01:37:40.089Z,100655.53
2022-08-16T01:40:13.491Z,100640.13
2022-08-16T01:42:44.206Z,100641.16
2022-08-16T01:45:19.783Z,100633.47
2022-08-16T01:47:50.938Z,100639.97
2022-08-16T01:50:43.609Z,100615.63
2022-08-16T01:53:10.941Z,100616.78
2022-08-16T01:55:41.511Z,100617.03
2022-08-16T01:58:10.812Z,100611.88
2022-08-16T02:00:40.289Z,100608.16
2022-08-16T02:03:08.362Z,100596.59
2022-08-16T02:05:42.095Z,100596.88
2022-08-16T02:08:33.739Z,100599.50
2022-08-16T02:11:07.546Z,100614.13
2022-08-16T02:13:35.797Z,100614.13
2022-08-16T02:16:18.834Z,100588.72
2022-08-16T02:18:47.507Z,100586.59
2022-08-16T02:21:16.279Z,100586.69
2022-08-16T02:23:45.526Z,100582.91
2022-08-16T02:26:18.742Z,100570.34
2022-08-16T02:28:47.247Z,100579.00
2022-08-16T02:31:16.388Z,100583.13
2022-08-16T02:33:50.191Z,100589.09
2022-08-16T02:36:48.032Z,100592.06
2022-08-16T02:39:09.342Z,100596.38
2022-08-16T02:41:40.263Z,100586.16
2022-08-16T02:44:11.036Z,100615.09
2022-08-16T02:46:41.898Z,100633.16
2022-08-16T02:49:19.301Z,100624.47
2022-08-16T02:51:48.378Z,100634.16
2022-08-16T02:54:18.069Z,100645.63
2022-08-16T02:56:47.868Z,100623.47
2022-08-16T02:59:16.155Z,100652.13
2022-08-16T03:01:44.297Z,100666.09
2022-08-16T03:04:40.040Z,100667.91
2022-08-16T03:06:59.965Z,100676.88
2022-08-16T03:09:28.531Z,100646.56
2022-08-16T03:11:59.072Z,100684.09
2022-08-16T03:14:29.044Z,100686.53
2022-08-16T03:16:59.238Z,100707.66
2022-08-16T03:19:47.931Z,100702.22
2022-08-16T03:22:19.564Z,100726.91
2022-08-16T03:24:58.090Z,100720.69
2022-08-16T03:27:30.831Z,100719.03
2022-08-16T03:30:00.299Z,100721.75
2022-08-16T03:32:28.114Z,100706.84
2022-08-16T03:34:55.942Z,100695.69
2022-08-16T03:37:24.628Z,100704.19
2022-08-16T03:39:56.895Z,100708.88
2022-08-16T03:42:32.233Z,100732.28
2022-08-16T03:45:03.316Z,100724.38
2022-08-16T03:47:34.194Z,100741.94
2022-08-16T03:50:02.998Z,100752.78
2022-08-16T03:52:31.902Z,100743.47
2022-08-16T03:55:00.342Z,100743.63
2022-08-16T03:57:31.720Z,100752.31
2022-08-16T04:00:35.068Z,100762.22
2022-08-16T04:03:07.325Z,100784.00
2022-08-16T04:05:37.919Z,100780.44
2022-08-16T04:08:23.516Z,100783.34
2022-08-16T04:10:54.104Z,100791.34
2022-08-16T04:14:01.097Z,100804.69
2022-08-16T04:16:27.555Z,100812.13
2022-08-16T04:19:02.473Z,100804.38
2022-08-16T04:21:32.722Z,100805.81
2022-08-16T04:24:00.997Z,100802.25
2022-08-16T04:26:31.039Z,100805.31
2022-08-16T04:29:16.679Z,100801.88
2022-08-16T04:31:56.354Z,100799.56
2022-08-16T04:34:27.626Z,100812.25
2022-08-16T04:36:56.754Z,100808.25
2022-08-16T04:39:36.543Z,100811.13
2022-08-16T04:42:10.879Z,100812.56
2022-08-16T04:44:54.397Z,100813.91
2022-08-16T04:47:33.042Z,100800.31
2022-08-16T04:50:03.381Z,100797.69
2022-08-16T04:52:35.062Z,100786.78
2022-08-16T04:55:06.809Z,100791.34
2022-08-16T04:57:35.916Z,100793.28
2022-08-16T05:00:31.774Z,100793.91
2022-08-16T05:03:01.183Z,100789.53
2022-08-16T05:05:30.652Z,100789.03
2022-08-16T05:08:28.348Z,100795.16
2022-08-16T05:10:53.096Z,100801.19
2022-08-16T05:13:40.391Z,100790.91
2022-08-16T05:16:20.333Z,100789.75
2022-08-16T05:18:53.108Z,100798.41
2022-08-16T05:21:21.631Z,100793.94
2022-08-16T05:23:55.488Z,100786.38
2022-08-16T05:26:28.119Z,100787.22
2022-08-16T05:28:57.838Z,100781.03
2022-08-16T05:31:29.906Z,100778.88
2022-08-16T05:34:00.541Z,100772.56
2022-08-16T05:36:36.389Z,100767.16
2022-08-16T05:39:06.800Z,100768.69
2022-08-16T05:41:44.700Z,100771.59
2022-08-16T05:44:23.684Z,100768.31
2022-08-16T05:46:54.521Z,100771.84
2022-08-16T05:49:24.768Z,100776.91
2022-08-16T05:51:55.386Z,100764.25
2022-08-16T05:54:25.639Z,100764.06
2022-08-16T05:56:53.953Z,100765.66
2022-08-16T05:59:23.610Z,100759.50
2022-08-16T06:01:52.003Z,100760.13
2022-08-16T06:04:34.804Z,100762.59
2022-08-16T06:07:08.872Z,100756.94
2022-08-16T06:09:43.589Z,100749.75
2022-08-16T06:12:12.703Z,100741.97
2022-08-16T06:14:58.488Z,100745.00
2022-08-16T06:17:41.498Z,100738.63
2022-08-16T06:20:14.633Z,100730.88
2022-08-16T06:22:47.872Z,100724.34
2022-08-16T06:25:36.437Z,100722.09
2022-08-16T06:28:10.255Z,100710.69
2022-08-16T06:30:45.229Z,100716.69
2022-08-16T06:33:19.745Z,100711.16
2022-08-16T06:35:50.690Z,100713.41
2022-08-16T06:38:33.007Z,100704.13
2022-08-16T06:41:03.767Z,100692.53
2022-08-16T06:43:31.887Z,100690.47
2022-08-16T06:46:00.756Z,100658.47
2022-08-16T06:48:32.487Z,100625.19
2022-08-16T06:51:01.927Z,100600.03
2022-08-16T06:53:33.783Z,100600.44
2022-08-16T06:56:05.981Z,100552.28
2022-08-16T06:58:41.571Z,100532.41
2022-08-16T07:01:09.668Z,100511.72
2022-08-16T07:03:55.116Z,100500.66
2022-08-16T07:06:26.786Z,100482.06
2022-08-16T07:08:56.872Z,100464.91
2022-08-16T07:11:47.881Z,100462.63
2022-08-16T07:14:23.832Z,100446.25
2022-08-16T07:16:55.602Z,100465.00
2022-08-16T07:20:03.812Z,100433.81
2022-08-16T07:22:52.910Z,100403.84
2022-08-16T07:25:03.279Z,100396.06
2022-08-16T07:27:32.145Z,100386.34
2022-08-16T07:30:01.742Z,100384.44
2022-08-16T07:32:31.654Z,100371.84
2022-08-16T07:34:59.769Z,100365.41
2022-08-16T07:37:27.554Z,100354.81
2022-08-16T07:39:57.305Z,100327.38
2022-08-16T07:42:34.726Z,100130.19
2022-08-16T07:45:03.491Z,100179.09
2022-08-16T07:47:38.041Z,100176.78
2022-08-16T07:50:07.511Z,100192.41
2022-08-16T07:52:38.744Z,100204.66
2022-08-16T07:55:09.061Z,100189.50
2022-08-16T07:57:58.165Z,100180.38
2022-08-16T08:00:26.752Z,100188.31
2022-08-16T08:02:55.531Z,100169.75
2022-08-16T08:05:35.855Z,100168.56
2022-08-16T08:08:11.812Z,100171.00
2022-08-16T08:10:53.001Z,100209.06
2022-08-16T08:13:42.273Z,100222.44
2022-08-16T08:16:18.569Z,100233.88
2022-08-16T08:18:49.967Z,100210.16
2022-08-16T08:21:27.255Z,100212.84
2022-08-16T08:23:57.718Z,100239.63
2022-08-16T08:26:26.285Z,100264.91
2022-08-16T08:29:01.091Z,100271.38
2022-08-16T08:31:29.403Z,100253.69
2022-08-16T08:33:58.554Z,100254.25
2022-08-16T08:36:33.078Z,100279.34
2022-08-16T08:39:02.702Z,100285.78
2022-08-16T08:41:41.521Z,100321.06
2022-08-16T08:44:28.815Z,100308.97
2022-08-16T08:47:00.752Z,100347.00
2022-08-16T08:49:46.292Z,100359.41
2022-08-16T08:52:33.595Z,100360.59
2022-08-16T08:55:10.441Z,100392.63
2022-08-16T08:57:41.043Z,100392.00
2022-08-16T09:00:13.891Z,100366.00
2022-08-16T09:02:45.518Z,100404.94
2022-08-16T09:05:24.185Z,100412.09
2022-08-16T09:08:05.900Z,100396.00
2022-08-16T09:10:34.090Z,100439.94
2022-08-16T09:13:07.938Z,100443.16
2022-08-16T09:15:37.417Z,100471.25
2022-08-16T09:18:25.495Z,100468.25
2022-08-16T09:20:58.497Z,100489.91
2022-08-16T09:23:31.120Z,100529.50
2022-08-16T09:26:44.520Z,100497.47
2022-08-16T09:29:13.862Z,100502.28
2022-08-16T09:31:43.452Z,100518.69
2022-08-16T09:34:17.205Z,100524.91
2022-08-16T09:36:47.104Z,100510.50
2022-08-16T09:39:15.837Z,100515.63
2022-08-16T09:41:53.224Z,100515.44
2022-08-16T09:45:09.759Z,100514.41
2022-08-16T09:47:13.137Z,100510.22
2022-08-16T09:49:41.419Z,100482.81
2022-08-16T09:52:10.673Z,100495.91
2022-08-16T09:54:44.247Z,100541.94
2022-08-16T09:57:12.635Z,100536.66
2022-08-16T09:59:41.865Z,100559.03
2022-08-16T10:02:26.641Z,100550.59
2022-08-16T10:04:58.599Z,100566.50
2022-08-16T10:07:44.306Z,100602.88
2022-08-16T10:10:18.666Z,100613.94
2022-08-16T10:13:12.065Z,100616.91
2022-08-16T10:15:45.016Z,100631.38
2022-08-16T10:19:00.795Z,100621.28
2022-08-16T10:21:12.069Z,100627.63
2022-08-16T10:23:40.441Z,100628.88
2022-08-16T10:27:16.892Z,100615.16
2022-08-16T10:28:59.321Z,100622.44
2022-08-16T10:31:45.688Z,100637.94
2022-08-16T10:34:30.954Z,100636.16
2022-08-16T10:37:02.202Z,100631.50
2022-08-16T10:39:42.107Z,100627.09
2022-08-16T10:42:13.320Z,100631.97
2022-08-16T10:44:42.337Z,100635.22
2022-08-16T10:47:11.571Z,100632.88
2022-08-16T10:49:39.905Z,100629.78
2022-08-16T10:52:18.109Z,100627.25
2022-08-16T10:57:35.077Z,100638.56
2022-08-16T11:00:06.647Z,100644.81
2022-08-16T11:03:00.812Z,100646.38
2022-08-16T11:05:58.968Z,100652.56
2022-08-16T11:08:23.558Z,100646.91
2022-08-16T11:11:06.657Z,100659.63
2022-08-16T11:19:18.026Z,100661.34
2022-08-16T11:24:42.938Z,100662.91
2022-08-16T11:27:20.080Z,100666.91
2022-08-16T11:29:51.945Z,100660.88
2022-08-16T11:32:29.807Z,100664.88
2022-08-16T11:35:11.152Z,100669.78
2022-08-16T11:40:38.824Z,100672.94
2022-08-16T11:43:10.169Z,100665.66
2022-08-16T11:45:38.539Z,100677.75
2022-08-16T11:48:07.202Z,100673.81
2022-08-16T11:50:36.413Z,100678.66
2022-08-16T11:53:05.810Z,100681.88
2022-08-16T11:55:38.850Z,100690.84
2022-08-16T11:58:11.108Z,100684.34
2022-08-16T12:00:51.609Z,100688.13
2022-08-16T12:03:31.452Z,100678.13
2022-08-16T12:06:10.636Z,100669.63
2022-08-16T12:08:40.309Z,100663.38
2022-08-16T12:11:10.979Z,100680.00
2022-08-16T12:13:40.507Z,100677.56
2022-08-16T12:16:09.207Z,100674.03
2022-08-16T12:18:38.123Z,100672.38
2022-08-16T12:21:09.860Z,100690.84
2022-08-16T12:23:38.327Z,100694.88
2022-08-16T12:26:10.541Z,100709.50
2022-08-16T12:28:54.610Z,100703.53
2022-08-16T12:31:24.388Z,100701.88
2022-08-16T12:33:54.323Z,100707.81
2022-08-16T12:36:26.160Z,100706.53
2022-08-16T12:38:57.600Z,100709.81
2022-08-16T12:41:26.649Z,100711.06
2022-08-16T12:44:01.072Z,100712.44
2022-08-16T12:46:31.274Z,100699.88
2022-08-16T12:48:59.315Z,100705.00
2022-08-16T12:51:58.949Z,100707.56
2022-08-16T12:54:19.795Z,100701.28
2022-08-16T12:56:48.265Z,100705.31
2022-08-16T12:59:21.902Z,100702.69
2022-08-16T13:01:57.978Z,100703.63
2022-08-16T13:04:26.616Z,100711.72
2022-08-16T13:07:19.866Z,100713.06
2022-08-16T13:09:58.317Z,100702.03
2022-08-16T13:12:28.308Z,100695.06
2022-08-16T13:14:58.419Z,100706.25
2022-08-16T13:17:29.856Z,100713.34
2022-08-16T13:20:13.724Z,100705.06
2022-08-16T13:22:44.695Z,100706.00
2022-08-16T13:25:20.787Z,100710.13
2022-08-16T13:28:03.019Z,100713.94
2022-08-16T13:30:42.458Z,100722.81
2022-08-16T13:33:14.828Z,100717.44
2022-08-16T13:35:55.419Z,100722.59
2022-08-16T13:38:25.709Z,100713.44
2022-08-16T13:40:56.415Z,100714.63
2022-08-16T13:43:26.956Z,100711.59
2022-08-16T13:45:57.057Z,100716.03
2022-08-16T13:48:26.311Z,100707.53
2022-08-16T13:51:05.363Z,100695.00
2022-08-16T13:53:33.263Z,100715.16
2022-08-16T13:56:03.916Z,100706.75
2022-08-16T13:58:34.777Z,100703.75
2022-08-16T14:01:10.036Z,100710.88
2022-08-16T14:03:39.827Z,100709.50
2022-08-16T14:06:10.785Z,100701.25
2022-08-16T14:08:42.378Z,100709.38
2022-08-16T14:11:12.699Z,100703.72
2022-08-16T14:13:42.924Z,100715.75
2022-08-16T14:16:24.398Z,100726.91
2022-08-16T14:18:58.157Z,100717.94
2022-08-16T14:21:25.952Z,100713.88
2022-08-16T14:23:53.785Z,100712.25
2022-08-16T14:26:24.915Z,100712.06
2022-08-16T14:28:53.201Z,100712.81
2022-08-16T14:31:24.007Z,100715.16
2022-08-16T14:33:51.794Z,100716.06
2022-08-16T14:36:29.874Z,100717.78
2022-08-16T14:38:59.159Z,100722.13
2022-08-16T14:41:27.654Z,100712.75
2022-08-16T14:43:56.396Z,100718.84
2022-08-16T14:46:26.017Z,100720.16
2022-08-16T14:48:53.860Z,100710.88
2022-08-16T14:51:23.211Z,100717.72
2022-08-16T14:53:56.901Z,100706.78
2022-08-16T14:56:38.948Z,100716.91
2022-08-16T14:59:12.409Z,100711.44
2022-08-16T15:01:57.903Z,100713.59
2022-08-16T15:04:39.286Z,100710.06
2022-08-16T15:07:17.348Z,100704.31
2022-08-16T15:10:00.680Z,100712.94
2022-08-16T15:12:33.943Z,100711.81
2022-08-16T15:15:04.606Z,100713.66
2022-08-16T15:17:56.256Z,100708.66
2022-08-16T15:20:29.635Z,100721.38
2022-08-16T15:22:59.812Z,100714.69
2022-08-16T15:25:33.171Z,100720.16
2022-08-16T15:28:04.666Z,100716.63
2022-08-16T15:30:58.347Z,100716.63
2022-08-16T15:33:25.748Z,100710.34
2022-08-16T15:35:57.789Z,100720.66
2022-08-16T16:07:22.701Z,100710.31
2022-08-16T16:10:54.231Z,100704.59
2022-08-16T16:13:17.190Z,100702.63
2022-08-16T16:16:06.854Z,100715.72
2022-08-16T16:18:48.770Z,100715.28
2022-08-16T16:21:20.516Z,100685.53
2022-08-16T16:23:54.903Z,100714.94
2022-08-16T16:26:27.320Z,100702.06
2022-08-16T16:29:08.272Z,100721.16
2022-08-16T16:31:58.938Z,100722.22
2022-08-16T16:34:32.307Z,100708.38
2022-08-16T16:37:03.922Z,100676.13
2022-08-16T16:39:33.535Z,100662.78
2022-08-16T16:42:01.494Z,100541.94
2022-08-16T16:44:33.882Z,100539.41
2022-08-16T16:47:06.775Z,100486.28
2022-08-16T16:49:34.614Z,100435.63
2022-08-16T16:52:10.222Z,100536.22
2022-08-16T16:54:43.055Z,100572.72
2022-08-16T16:57:34.656Z,100553.06
2022-08-16T17:00:30.308Z,100545.44
2022-08-16T17:02:56.517Z,100377.53
2022-08-16T17:05:34.242Z,100458.06
2022-08-16T17:08:02.709Z,100541.78
2022-08-16T17:10:46.023Z,100580.41
2022-08-16T17:16:04.705Z,100669.47
2022-08-16T17:19:06.467Z,100705.97
2022-08-16T17:21:21.806Z,100694.38
2022-08-16T17:23:58.226Z,100732.84
2022-08-16T17:26:31.026Z,100670.13
2022-08-16T17:31:47.502Z,100646.97
2022-08-16T17:34:28.509Z,100639.22
2022-08-16T17:36:58.816Z,100600.13
2022-08-16T17:39:26.962Z,100690.31
2022-08-16T17:39:29.688Z,100560.22
2022-08-16T17:41:59.400Z,100562.78
2022-08-16T17:44:27.732Z,100558.66
2022-08-16T17:46:55.574Z,100598.19
2022-08-16T17:49:23.426Z,100584.38
2022-08-16T17:51:51.270Z,100585.47
2022-08-16T17:54:30.205Z,100592.47
2022-08-16T17:57:00.598Z,100632.69
2022-08-16T17:59:29.246Z,100653.50
2022-08-16T18:01:57.442Z,100614.50
2022-08-16T18:04:48.539Z,100583.44
2022-08-16T18:07:13.534Z,100647.41
2022-08-16T18:09:42.099Z,100613.53
2022-08-16T18:12:54.978Z,100605.66
2022-08-16T18:15:07.931Z,100581.53
2022-08-16T18:17:35.981Z,100552.63
2022-08-16T18:20:04.812Z,100538.41
2022-08-16T18:22:33.751Z,100512.56
2022-08-16T18:25:01.892Z,100495.66
2022-08-16T18:27:32.709Z,100492.63
2022-08-16T18:30:01.067Z,100489.34
2022-08-16T18:32:29.300Z,100492.94
2022-08-16T18:34:58.060Z,100488.16
2022-08-16T18:37:26.046Z,100467.59
2022-08-16T18:39:54.098Z,100486.38
2022-08-16T18:42:24.512Z,100499.34
2022-08-16T18:44:53.679Z,100501.28
2022-08-16T18:47:21.457Z,100495.50
2022-08-16T18:49:49.661Z,100531.94
2022-08-16T18:52:25.294Z,100541.47
2022-08-16T18:55:01.686Z,100556.84
2022-08-16T18:57:31.163Z,100544.03
2022-08-16T19:00:00.388Z,100509.75
2022-08-16T19:02:57.662Z,100516.69
2022-08-16T19:05:20.919Z,100518.59
2022-08-16T19:07:48.854Z,100532.63
2022-08-16T19:10:17.236Z,100518.81
2022-08-16T19:12:45.482Z,100517.38
2022-08-16T19:15:16.882Z,100518.25
2022-08-16T19:17:45.235Z,100493.34
2022-08-16T19:20:19.279Z,100503.75
2022-08-16T19:23:05.634Z,100509.78
2022-08-16T19:25:48.454Z,100513.22
2022-08-16T19:28:51.553Z,100537.97
2022-08-16T19:31:15.141Z,100553.47
2022-08-16T19:33:53.782Z,100555.44
2022-08-16T19:36:31.285Z,100569.84
2022-08-16T19:39:04.581Z,100566.34
2022-08-16T19:41:35.125Z,100572.69
2022-08-16T19:44:03.120Z,100584.44
2022-08-16T19:46:32.392Z,100569.13
2022-08-16T19:49:00.473Z,100564.34
2022-08-16T19:51:28.868Z,100550.53
2022-08-16T19:53:56.709Z,100557.78
2022-08-16T19:56:25.816Z,100535.66
2022-08-16T20:01:43.695Z,100524.56
2022-08-16T20:04:12.849Z,100511.47
2022-08-16T20:06:41.289Z,100510.53
2022-08-16T20:09:10.879Z,100502.78
2022-08-16T20:11:43.665Z,100509.19
2022-08-16T20:14:11.629Z,100516.38
2022-08-16T20:16:48.599Z,100514.31
2022-08-16T20:19:17.397Z,100511.16
2022-08-16T20:21:46.243Z,100503.66
2022-08-16T20:24:32.708Z,100509.91
2022-08-16T20:27:01.113Z,100503.03
2022-08-16T20:29:29.934Z,100506.53
2022-08-16T20:31:59.631Z,100517.63
2022-08-16T20:34:28.554Z,100537.13
2022-08-16T20:36:56.378Z,100548.50
2022-08-16T20:39:24.473Z,100563.63
2022-08-16T20:41:52.894Z,100576.34
2022-08-16T20:44:22.837Z,100575.69
2022-08-16T20:46:52.814Z,100575.78
2022-08-16T20:49:22.046Z,100571.09
2022-08-16T20:51:53.733Z,100596.75
2022-08-16T20:54:24.485Z,100577.34
2022-08-16T20:56:52.464Z,100575.78
2022-08-16T20:59:20.288Z,100559.78
2022-08-16T21:01:50.215Z,100571.75
2022-08-16T21:04:18.992Z,100566.91
2022-08-16T21:06:52.896Z,100552.09
2022-08-16T21:09:23.122Z,100555.63
2022-08-16T21:11:52.634Z,100562.00
2022-08-16T21:14:20.528Z,100565.63
2022-08-16T21:16:48.270Z,100569.38
2022-08-16T21:19:16.395Z,100570.94
2022-08-16T21:21:44.199Z,100582.22
2022-08-16T21:24:13.564Z,100570.09
2022-08-16T21:26:41.419Z,100567.03
2022-08-16T21:29:21.652Z,100553.16
2022-08-16T21:31:52.758Z,100559.03
2022-08-16T21:34:20.575Z,100538.22
2022-08-16T21:36:48.725Z,100563.63
2022-08-16T21:39:17.931Z,100560.47
2022-08-16T21:41:46.289Z,100568.81
2022-08-16T21:44:14.013Z,100558.78
2022-08-16T21:46:41.786Z,100558.06
2022-08-16T21:49:09.588Z,100562.19
2022-08-16T21:51:37.380Z,100576.41
2022-08-16T21:54:05.476Z,100565.38
2022-08-16T21:56:34.662Z,100559.84
2022-08-16T21:59:06.994Z,100558.91
2022-08-16T22:01:34.836Z,100559.59
2022-08-16T22:04:36.511Z,100565.94
2022-08-16T22:06:52.090Z,100572.88
2022-08-16T22:09:19.929Z,100571.34
2022-08-16T22:11:49.727Z,100573.91
2022-08-16T22:14:18.423Z,100563.59
2022-08-16T22:16:47.135Z,100580.13
2022-08-16T22:19:14.928Z,100581.22
2022-08-16T22:21:42.716Z,100581.09
2022-08-16T22:24:10.943Z,100584.94
2022-08-16T22:26:43.095Z,100581.81
2022-08-16T22:29:14.949Z,100585.44
2022-08-16T22:31:43.885Z,100580.50
2022-08-16T22:34:12.096Z,100589.88
2022-08-16T22:36:40.009Z,100585.50
2022-08-16T22:39:09.816Z,100579.03
2022-08-16T22:41:39.448Z,100587.38
2022-08-16T22:44:08.404Z,100582.81
2022-08-16T22:46:37.740Z,100582.22
2022-08-16T22:49:06.419Z,100582.91
2022-08-16T22:51:34.566Z,100597.66
2022-08-16T22:54:39.250Z,100590.31
2022-08-16T22:56:50.218Z,100605.81
2022-08-16T22:59:18.009Z,100600.00
2022-08-16T23:01:47.237Z,100577.56
2022-08-16T23:04:15.036Z,100574.28
2022-08-16T23:06:43.449Z,100578.81
2022-08-16T23:09:11.201Z,100575.66
2022-08-16T23:11:39.146Z,100577.41
2022-08-16T23:14:06.934Z,100576.47
2022-08-16T23:16:35.553Z,100567.22
2022-08-16T23:19:06.993Z,100572.06
2022-08-16T23:21:37.107Z,100570.13
2022-08-16T23:24:05.805Z,100579.69
2022-08-16T23:26:46.831Z,100573.47
2022-08-16T23:29:24.634Z,100570.97
2022-08-16T23:32:00.136Z,100570.06
2022-08-16T23:34:29.819Z,100571.34
2022-08-16T23:36:57.777Z,100561.78
2022-08-16T23:39:25.876Z,100565.88
2022-08-16T23:41:53.782Z,100571.00
2022-08-16T23:44:56.282Z,100571.94
2022-08-16T23:47:09.595Z,100566.13
2022-08-16T23:49:56.550Z,100568.38
2022-08-16T23:52:53.944Z,100554.97
2022-08-16T23:55:16.906Z,100561.00
2022-08-16T23:57:45.172Z,100561.91
